EDDK/CGN METAR and TAF weather

Enter ICAO airport designator
Station Type Date Time Source
EDDK METAR 2019/12/07 09:50 UTC NOAA

EDDK 070950Z 24009KT 9999 SCT018 BKN040 09/06 Q1014 NOSIG


Station Type Date Time Source
EDDK Decoded METAR 2019/12/07 09:50 UTC NOAA

Koeln / Bonn, Germany (EDDK) 50-52N 007-10E 100M
Dec 07, 2019 - 04:50 AM EST / 2019.12.07 0950 UTC
Wind: from the WSW (240 degrees) at 10 MPH (9 KT):0
Visibility: greater than 7 mile(s):0
Sky conditions: mostly cloudy
Temperature: 48 F (9 C)
Dew Point: 42 F (6 C)
Relative Humidity: 81%
Pressure (altimeter): 29.94 in. Hg (1014 hPa)
ob: EDDK 070950Z 24009KT 9999 SCT018 BKN040 09/06 Q1014 NOSIG
cycle: 10

Station Type Date Time Source
EDDK TAF 2019/12/07 06:27 UTC NOAA

TAF EDDK 070500Z 0706/0812 26010KT 9999 BKN020
BECMG 0717/0720 19007KT
BECMG 0808/0811 20013KT PROB30
TEMPO 0809/0812 RA

Example: see airport list